KWDRKPNS

Guest
Details From KWDR - Winder Barrow
To KPNS - Pensacola Rgnl
Flight Number -
Tags Generated
Created
Modified
Stats Distance 276 nm / 512 km
Max Altitude 0 ft / 0 m
Waypoints 3
Social Downloads 1
Likes 0
Share VATSIM

Download

Looking for another format? Having issues loading an existing format? Contact us
Advertisement - Login to hide

Notes

Generated

Route

KWDR R0764 KPNS

ID Type Via Altitude Latitude Longitude Leg Dist Tot Dist Heading (true) Name
O KWDR APT - 0 ft / 0 m 33.97779˚ -83.67310˚ - 0 nm - WINDER BARROW
R0764 FIX - 0 ft / 0 m 30.47133˚ -87.19594˚ 276 nm 276 nm 221° / 219° -
O KPNS APT - 0 ft / 0 m 30.47133˚ -87.19594˚ 0 nm 276 nm 0° / 180° -

Altitude Profile

Advertisement - Login to hide

Weather


0- 5 10 15 20 25 30 35+ Temperature / ° C

Clouds and Precipitation
Forecast for 2017-12-13 06:00 UTC. Updated an hour ago

Ground ~20,000 ft ~40,000 ft Winds

KWDR

Details ICAO KWDR (WDR)
Name WINDER BARROW
Region United States
Timezone America/New_York (UTC-5.0)
Stats Elevation 943 ft / 287 m (AMSL)
Location 33.982596° -83.667658°
Runways 2
Magnetic Variation 5.664° W

METAR

KWDR 130355Z AUTO 31012G21KT 10SM CLR 03/M09 A2997 RMK AO1

Decode

TAF

Not found

Departure Runways

ID Width Length Bearing (true) Bearing (mag) Surface Threshold Offset Overrun Length
05 100 ft / 30 m 3,612 ft / 1,101 m 45.60° 51.26° Asphalt 0 ft / 0 m 0 ft / 0 m
13 100 ft / 30 m 5,501 ft / 1,677 m 128.78° 134.44° Asphalt 0 ft / 0 m 0 ft / 0 m
23 100 ft / 30 m 3,612 ft / 1,101 m 225.60° 231.26° Asphalt 0 ft / 0 m 0 ft / 0 m
31 100 ft / 30 m 5,501 ft / 1,677 m 308.79° 314.45° Asphalt 340 ft / 104 m 0 ft / 0 m

KPNS

Details ICAO KPNS (PNS)
Name Pensacola Rgnl
Region United States
Timezone America/Chicago (UTC-6.0)
Stats Elevation 121 ft / 37 m (AMSL)
Location 30.473426° -87.186612°
Runways 2
Magnetic Variation 2.819° W

METAR

KPNS 130353Z 32005KT 10SM CLR 07/02 A3012 RMK AO2 SLP203 T00720017

Decode

TAF

KPNS 122321Z 1300/1324 33008KT P6SM SKC FM130900 35005KT P6SM SKC FM132100 21013KT P6SM SKC

Decode

Destination Runways

ID Width Length Bearing (true) Bearing (mag) Surface Threshold Offset Overrun Length
08 150 ft / 46 m 6,991 ft / 2,131 m 78.00° 80.82° Asphalt 0 ft / 0 m 0 ft / 0 m
17 150 ft / 46 m 7,025 ft / 2,141 m 167.05° 169.87° Asphalt 0 ft / 0 m 0 ft / 0 m
26 150 ft / 46 m 6,991 ft / 2,131 m 258.01° 260.83° Asphalt 0 ft / 0 m 0 ft / 0 m
35 150 ft / 46 m 7,025 ft / 2,141 m 347.05° 349.87° Asphalt 0 ft / 0 m 0 ft / 0 m

Approach Navaids

Runway Type Ident Frequency Range Bearing (true) Bearing (mag) Slope Elevation
17 Localiser IPNS 111.10 MHz 18 nm / 33 km 167.05° 169.87° - 94 ft / 29 m (AMSL)
17 Glidescope IPNS 111.10 MHz 10 nm / 19 km 167.05° 169.87° 3.00° 119 ft / 36 m (AMSL)
17 DME IPNS 111.10 MHz 18 nm / 33 km - - - 108 ft / 33 m (AMSL)
26 Localiser IPHC 110.95 MHz 18 nm / 33 km 258.00° 260.81° - 87 ft / 27 m (AMSL)
26 DME IPHC 110.95 MHz 18 nm / 33 km - - - 82 ft / 25 m (AMSL)